Terminal Aerodrome Forecast
Issued by NWS

Home | Current Version | Previous Version | Text Only | Print | Product List | Glossary On
Versions: 1 2 3 4 5 6 7 8 9 10 11 12 13 14 15 16 17 18 19 20 21 22 23 24 25 26
000
FTUS41 KGYX 291720
TAFRKD
TAF
KRKD 291720Z 2918/3018 26007KT P6SM SKC
     FM292300 VRB03KT P6SM SCT200
     FM300800 20008KT P6SM SCT120 BKN200
     FM301600 19014G24KT P6SM SCT030 BKN050 OVC080
      AMD LTD TO CLD VIS AND WIND=

USA.gov is the U.S. government's official web portal to all federal, state and local government web resources and services.